This is the latest recevied weather packets stored in our database for station/object SQ3VAS-10. If no packets are shown the sender has not sent any weather packets the latest 10 day(s).
| Time | Temp. | Humidity | Pressure | Rain* | Wind** | Luminosity | Snow |
|---|---|---|---|---|---|---|---|
| 1777907762 | 26.11° C | 38% | 1011.3 hPa | - | - | - | - |
| 1777907187 | 25.56° C | 39% | 1011.5 hPa | - | - | - | - |
| 1777906614 | 25° C | 41% | 1011.5 hPa | - | - | - | - |
| 1777906042 | 25.56° C | 40% | 1011.5 hPa | - | - | - | - |
| 1777905468 | 26.11° C | 39% | 1011.4 hPa | - | - | - | - |
| 1777904894 | 23.89° C | 43% | 1011.6 hPa | - | - | - | - |
| 1777904321 | 23.89° C | 43% | 1011.6 hPa | - | - | - | - |
| 1777903749 | 25° C | 41% | 1011.6 hPa | - | - | - | - |
| 1777903175 | 23.89° C | 43% | 1011.5 hPa | - | - | - | - |
| 1777902604 | 24.44° C | 42% | 1011.6 hPa | - | - | - | - |
| 1777902031 | 25° C | 40% | 1011.5 hPa | - | - | - | - |
| 1777901457 | 24.44° C | 42% | 1011.6 hPa | - | - | - | - |
| 1777900886 | 25° C | 41% | 1011.6 hPa | - | - | - | - |
| 1777900312 | 24.44° C | 42% | 1011.7 hPa | - | - | - | - |
| 1777899739 | 25° C | 43% | 1011.7 hPa | - | - | - | - |
| 1777899166 | 24.44° C | 45% | 1011.9 hPa | - | - | - | - |
| 1777898593 | 23.33° C | 46% | 1011.9 hPa | - | - | - | - |
| 1777898021 | 23.89° C | 45% | 1011.9 hPa | - | - | - | - |
| 1777897449 | 23.89° C | 43% | 1012 hPa | - | - | - | - |
| 1777896877 | 25.56° C | 40% | 1011.9 hPa | - | - | - | - |
| 1777896304 | 26.11° C | 39% | 1011.9 hPa | - | - | - | - |
| 1777895732 | 25° C | 42% | 1011.9 hPa | - | - | - | - |
| 1777895157 | 25° C | 43% | 1011.9 hPa | - | - | - | - |
| 1777894582 | 24.44° C | 45% | 1011.9 hPa | - | - | - | - |
| 1777893437 | 22.78° C | 46% | 1012.1 hPa | - | - | - | - |
* Rain since midnight (hover to see other rain measurements)
** Current wind speed in m/s (hover to see current wind gust speed)